Time;durP1;ratioP1;P1;durP2;ratioP2;P2;SDS_P1;SDS_P2;PMS_P1;PMS_P2;Temp;Humidity;BMP_temperature;BMP_pressure;BME280_temperature;BME280_humidity;BME280_pressure;Samples;Min_cycle;Max_cycle;Signal;HPM_P1;HPM_P2
2023/03/05 00:02:20;;;;;;;3.60;2.17;;;3.20;99.90;;;;;;5051924;28;20165;-82
2023/03/05 00:04:46;;;;;;;7.30;1.87;;;3.20;99.90;;;;;;5051500;28;20551;-82
2023/03/05 00:07:13;;;;;;;4.60;2.10;;;3.20;99.90;;;;;;5050829;28;20224;-82
2023/03/05 00:09:39;;;;;;;5.87;2.40;;;3.20;99.90;;;;;;5050355;28;20189;-82
2023/03/05 00:12:11;;;;;;;6.57;2.17;;;3.10;99.90;;;;;;5050366;28;20174;-82
2023/03/05 00:14:37;;;;;;;7.60;2.57;;;3.10;99.90;;;;;;5050867;28;20171;-82
2023/03/05 00:17:05;;;;;;;5.60;2.30;;;3.10;99.90;;;;;;5050273;28;20198;-82
2023/03/05 00:19:31;;;;;;;4.27;2.33;;;3.10;99.90;;;;;;5050098;28;20182;-82
2023/03/05 00:21:57;;;;;;;3.73;1.97;;;3.20;99.90;;;;;;5050455;28;20247;-82
2023/03/05 00:24:22;;;;;;;6.43;2.70;;;3.20;99.90;;;;;;5049994;28;20236;-82
2023/03/05 00:26:52;;;;;;;4.47;1.90;;;3.20;99.90;;;;;;5050254;28;20202;-83
2023/03/05 00:29:26;;;;;;;4.77;2.03;;;3.10;99.90;;;;;;5050405;28;20203;-82
2023/03/05 00:31:53;;;;;;;5.17;1.80;;;3.20;99.90;;;;;;5050130;28;20247;-82
2023/03/05 00:34:22;;;;;;;5.93;2.00;;;3.30;99.90;;;;;;5049985;28;20545;-82
2023/03/05 00:36:50;;;;;;;4.23;2.00;;;3.30;99.90;;;;;;5050398;28;20230;-82
2023/03/05 00:39:17;;;;;;;6.50;2.20;;;3.30;99.90;;;;;;5049945;28;20186;-82
2023/03/05 00:41:43;;;;;;;5.07;2.33;;;3.20;99.90;;;;;;5050259;28;20186;-82
2023/03/05 00:44:09;;;;;;;8.67;2.00;;;3.20;99.90;;;;;;5049956;28;20213;-82
2023/03/05 00:46:39;;;;;;;3.30;1.90;;;3.10;99.90;;;;;;5050401;27;20250;-82
2023/03/05 00:49:04;;;;;;;7.93;2.30;;;3.10;99.90;;;;;;5049768;28;20179;-82
2023/03/05 00:51:30;;;;;;;4.87;2.40;;;3.10;99.90;;;;;;5049733;28;20181;-82
2023/03/05 00:53:56;;;;;;;4.83;2.00;;;3.10;99.90;;;;;;5049705;28;20207;-82
2023/03/05 00:56:22;;;;;;;3.43;1.70;;;3.20;99.90;;;;;;5049940;28;20210;-82
2023/03/05 00:58:48;;;;;;;3.10;1.87;;;3.20;99.90;;;;;;5050166;28;20189;-82
2023/03/05 01:01:14;;;;;;;7.40;2.03;;;3.20;99.90;;;;;;5049638;28;20182;-82
2023/03/05 01:03:40;;;;;;;5.40;2.30;;;3.20;99.90;;;;;;5050342;28;20693;-82
2023/03/05 01:06:12;;;;;;;6.63;2.07;;;3.30;99.90;;;;;;5049437;28;20198;-82
2023/03/05 01:08:38;;;;;;;6.47;2.00;;;3.20;99.90;;;;;;5049810;28;20178;-82
2023/03/05 01:11:05;;;;;;;5.13;2.20;;;3.20;99.90;;;;;;5050651;27;20193;-82
2023/03/05 01:13:31;;;;;;;7.90;2.00;;;3.20;99.90;;;;;;5049575;28;20273;-82
2023/03/05 01:15:56;;;;;;;6.90;2.00;;;3.20;99.90;;;;;;5049680;28;20301;-82
2023/03/05 01:18:22;;;;;;;6.27;2.20;;;3.20;99.90;;;;;;5049703;28;20193;-82
2023/03/05 01:20:48;;;;;;;2.43;1.80;;;3.20;99.90;;;;;;5049408;28;20217;-82
2023/03/05 01:23:14;;;;;;;3.53;1.70;;;3.20;99.90;;;;;;5049251;28;20189;-82
2023/03/05 01:25:39;;;;;;;3.07;1.60;;;3.20;99.90;;;;;;5049475;28;20202;-82
2023/03/05 01:28:06;;;;;;;4.23;1.80;;;3.30;99.90;;;;;;5050106;28;20190;-82
2023/03/05 01:30:32;;;;;;;4.03;1.80;;;3.30;99.90;;;;;;5050039;28;20368;-82
2023/03/05 01:32:58;;;;;;;5.37;1.80;;;3.20;99.90;;;;;;5049230;28;20182;-82
2023/03/05 01:35:24;;;;;;;4.53;2.07;;;3.20;99.90;;;;;;5050956;28;20197;-82
2023/03/05 01:37:51;;;;;;;3.13;1.83;;;3.30;99.90;;;;;;5049386;28;20209;-82
2023/03/05 01:40:25;;;;;;;6.03;2.03;;;3.30;99.90;;;;;;5049117;28;20178;-82
2023/03/05 01:43:11;;;;;;;5.90;1.90;;;3.20;99.90;;;;;;5049937;28;20174;-82
2023/03/05 01:45:37;;;;;;;7.10;2.20;;;3.30;99.90;;;;;;5049718;28;20206;-82
2023/03/05 01:48:03;;;;;;;5.23;2.30;;;3.30;99.90;;;;;;5049023;28;20186;-82
2023/03/05 01:50:28;;;;;;;6.10;2.20;;;3.30;99.90;;;;;;5049057;28;20223;-82
2023/03/05 01:53:01;;;;;;;5.63;2.20;;;3.30;99.90;;;;;;5049206;27;20188;-82
2023/03/05 01:55:31;;;;;;;7.53;2.17;;;3.30;99.90;;;;;;5049112;28;20170;-82
2023/03/05 01:58:03;;;;;;;6.77;1.90;;;3.30;99.90;;;;;;5052808;28;20170;-82
2023/03/05 09:26:45;;;;;;;;;;;;;;;;;;;;;
2023/03/05 09:35:55;;;;;;;5.43;2.65;;;5.50;95.60;;;;;;5053737;28;20250;-84
2023/03/05 09:38:51;;;;;;;1.92;1.60;;;5.40;95.50;;;;;;5036784;28;20377;-84
2023/03/05 09:41:59;;;;;;;2.97;1.95;;;5.30;96.00;;;;;;5055346;28;20155;-84
2023/03/05 09:44:43;;;;;;;2.65;1.80;;;5.30;96.00;;;;;;5053137;28;20217;-84
2023/03/05 09:47:12;;;;;;;2.00;1.60;;;5.30;96.20;;;;;;5053620;28;20292;-84
2023/03/05 09:50:02;;;;;;;3.10;1.50;;;5.20;95.60;;;;;;5053359;28;20170;-83
2023/03/05 09:52:46;;;;;;;1.33;1.10;;;5.20;95.80;;;;;;5055343;28;20178;-83
2023/03/05 09:55:19;;;;;;;3.67;1.40;;;5.20;95.70;;;;;;5053997;28;20273;-83
2023/03/05 09:57:50;;;;;;;2.43;1.20;;;5.20;95.20;;;;;;5054103;28;20205;-84
2023/03/05 10:00:43;;;;;;;2.60;1.30;;;5.20;95.50;;;;;;5053836;28;20162;-84
2023/03/05 10:03:20;;;;;;;2.10;1.17;;;5.30;95.70;;;;;;5054000;28;20162;-84
2023/03/05 10:05:51;;;;;;;1.43;1.03;;;5.20;95.10;;;;;;5052474;28;20218;-84
2023/03/05 10:09:04;;;;;;;1.50;1.07;;;5.00;94.80;;;;;;5053913;28;20178;-84
2023/03/05 10:11:41;;;;;;;1.33;0.90;;;5.00;95.20;;;;;;5052697;28;20167;-83
2023/03/05 10:14:22;;;;;;;3.83;0.97;;;4.90;95.70;;;;;;5052695;28;20216;-83
2023/03/05 10:17:15;;;;;;;2.50;1.13;;;4.90;95.60;;;;;;5054644;28;20201;-83
2023/03/05 10:20:23;;;;;;;1.60;1.20;;;4.90;95.40;;;;;;5056531;28;20223;-83
2023/03/05 10:23:07;;;;;;;1.57;1.20;;;4.90;95.50;;;;;;5057023;28;20200;-83
2023/03/05 10:26:04;;;;;;;1.23;1.10;;;4.80;95.70;;;;;;5056799;28;20212;-83
2023/03/05 10:29:26;;;;;;;1.50;1.40;;;4.90;95.90;;;;;;5056891;28;20265;-83
2023/03/05 10:32:25;;;;;;;5.33;2.07;;;4.90;95.80;;;;;;5055748;28;20186;-83
2023/03/05 10:38:25;;;;;;;3.00;2.00;;;4.80;95.80;;;;;;5057328;28;20186;-83
2023/03/05 10:40:53;;;;;;;2.30;2.10;;;4.90;95.80;;;;;;5057328;28;20170;-83
2023/03/05 10:43:50;;;;;;;4.37;3.73;;;5.00;95.90;;;;;;5057609;28;20204;-83
2023/03/05 10:46:57;;;;;;;6.13;3.87;;;5.20;95.50;;;;;;5057589;28;20305;-84
2023/03/05 10:52:45;;;;;;;4.93;2.20;;;5.50;95.30;;;;;;5057751;28;20177;-84
2023/03/05 10:55:17;;;;;;;7.33;5.10;;;5.80;95.50;;;;;;5057577;28;20166;-85
2023/03/05 10:57:43;;;;;;;4.70;2.00;;;6.00;95.30;;;;;;5055173;28;20202;-84
2023/03/05 11:00:26;;;;;;;10.13;7.35;;;6.30;95.80;;;;;;5055453;28;20162;-84
2023/03/05 11:03:45;;;;;;;7.78;5.03;;;6.30;93.90;;;;;;5055107;28;20166;-84
2023/03/05 11:06:14;;;;;;;6.43;3.70;;;6.50;94.30;;;;;;5054535;28;20696;-84
2023/03/05 11:08:44;;;;;;;2.13;1.90;;;6.70;93.50;;;;;;5054836;28;20269;-84
2023/03/05 11:11:18;;;;;;;2.38;1.45;;;6.80;93.30;;;;;;5054761;28;20170;-84
2023/03/05 11:13:47;;;;;;;2.15;1.40;;;6.70;92.60;;;;;;5053660;28;20166;-84
2023/03/05 11:16:20;;;;;;;2.38;1.50;;;6.70;92.80;;;;;;5053036;28;20205;-84
2023/03/05 11:19:38;;;;;;;4.57;1.10;;;6.80;94.00;;;;;;5054625;28;20193;-84
2023/03/05 11:22:19;;;;;;;4.05;1.33;;;6.70;92.50;;;;;;5054491;28;20262;-84
2023/03/05 11:25:11;;;;;;;2.15;1.38;;;6.80;93.20;;;;;;5055570;28;20206;-84
2023/03/05 11:27:43;;;;;;;2.88;1.20;;;6.70;92.20;;;;;;5054049;28;20218;-84
2023/03/05 11:33:30;;;;;;;2.25;1.20;;;6.80;93.30;;;;;;5055874;28;20208;-84
2023/03/05 11:36:30;;;;;;;1.90;1.30;;;6.60;92.80;;;;;;5055327;28;20594;-84
2023/03/05 11:42:24;;;;;;;2.13;1.50;;;6.90;92.40;;;;;;5055947;28;20236;-84
2023/03/05 11:44:55;;;;;;;1.27;1.08;;;6.90;92.20;;;;;;5055670;28;20255;-84
2023/03/05 11:47:43;;;;;;;2.42;1.35;;;6.90;91.80;;;;;;5054642;28;20224;-84
2023/03/05 11:50:15;;;;;;;2.70;1.50;;;6.80;92.30;;;;;;5055735;28;20163;-84
2023/03/05 11:52:46;;;;;;;1.20;1.15;;;6.70;92.70;;;;;;5056231;28;20171;-84
2023/03/05 11:55:40;;;;;;;2.33;1.30;;;6.60;92.30;;;;;;5054584;28;20256;-84
2023/03/05 11:58:57;;;;;;;4.18;1.50;;;6.40;93.00;;;;;;5054490;28;20170;-84
2023/03/05 12:01:26;;;;;;;1.30;1.20;;;6.20;92.60;;;;;;5021832;28;20198;-84
2023/03/05 12:04:21;;;;;;;2.55;1.20;;;6.20;93.60;;;;;;5054905;28;20204;-85
2023/03/05 12:07:00;;;;;;;1.55;1.40;;;6.20;92.90;;;;;;5053767;28;20222;-84
2023/03/05 12:09:39;;;;;;;5.78;2.83;;;6.00;92.40;;;;;;5054564;28;20189;-84
2023/03/05 12:15:46;;;;;;;2.63;1.73;;;5.90;92.60;;;;;;5054826;28;20718;-84
2023/03/05 12:18:35;;;;;;;5.00;1.92;;;5.70;92.50;;;;;;5053474;28;20196;-85
2023/03/05 12:27:45;;;;;;;4.22;1.80;;;5.90;93.20;;;;;;5054533;28;20221;-84
2023/03/05 12:33:43;;;;;;;4.93;1.75;;;6.20;93.50;;;;;;5054424;28;20200;-84
2023/03/05 12:40:03;;;;;;;4.63;2.55;;;6.20;93.50;;;;;;5053882;28;20209;-84
2023/03/05 12:42:29;;;;;;;2.65;1.85;;;6.30;93.20;;;;;;5029304;28;20216;-84
2023/03/05 12:45:20;;;;;;;5.20;1.90;;;6.20;93.10;;;;;;5053276;28;20202;-84
2023/03/05 12:48:10;;;;;;;2.92;1.90;;;6.20;93.50;;;;;;5052960;28;20691;-85
2023/03/05 12:50:36;;;;;;;30.85;10.75;;;6.30;93.40;;;;;;5052851;28;20192;-84
2023/03/05 12:53:19;;;;;;;3.05;1.77;;;6.20;93.40;;;;;;5052857;28;20277;-84
2023/03/05 12:56:02;;;;;;;5.85;2.88;;;6.10;93.60;;;;;;5052823;28;20240;-85
2023/03/05 12:58:52;;;;;;;5.20;2.78;;;6.10;93.80;;;;;;5052745;28;20177;-85
2023/03/05 13:01:45;;;;;;;2.70;1.90;;;6.00;94.00;;;;;;5054399;28;20174;-84
2023/03/05 13:04:22;;;;;;;3.55;2.38;;;5.90;94.30;;;;;;5052925;28;20178;-84
2023/03/05 13:07:12;;;;;;;4.75;1.95;;;5.90;93.90;;;;;;5052609;28;20194;-84
2023/03/05 13:09:49;;;;;;;3.50;1.92;;;5.90;93.70;;;;;;5053191;28;20166;-84
2023/03/05 13:13:01;;;;;;;3.72;2.05;;;5.90;94.00;;;;;;5053111;28;20220;-84
2023/03/05 13:15:38;;;;;;;3.03;1.90;;;6.00;94.10;;;;;;5052350;28;20177;-84
2023/03/05 13:18:15;;;;;;;2.65;2.15;;;6.10;94.40;;;;;;5052672;28;20176;-84
2023/03/05 13:24:18;;;;;;;3.30;1.90;;;6.40;93.20;;;;;;5054010;28;20157;-84
2023/03/05 13:26:49;;;;;;;3.83;2.05;;;6.40;92.60;;;;;;5052654;28;20301;-84
2023/03/05 13:29:22;;;;;;;3.60;2.05;;;6.60;92.80;;;;;;5053052;28;20182;-84
2023/03/05 13:32:24;;;;;;;5.80;2.05;;;6.60;92.20;;;;;;5053307;28;20257;-84
2023/03/05 13:34:51;;;;;;;3.17;2.20;;;6.80;92.50;;;;;;5052448;28;20177;-84
2023/03/05 13:37:22;;;;;;;3.42;2.17;;;6.70;92.10;;;;;;5052126;28;20262;-84
2023/03/05 13:46:33;;;;;;;4.43;3.00;;;6.30;93.30;;;;;;5053496;28;20229;-84
2023/03/05 13:52:28;;;;;;;6.07;2.88;;;6.00;92.80;;;;;;5056909;28;20201;-84
2023/03/05 13:55:00;;;;;;;4.65;3.00;;;5.90;93.60;;;;;;5056247;28;20228;-84
2023/03/05 13:57:52;;;;;;;5.50;3.63;;;5.80;94.20;;;;;;5057062;28;20198;-84
2023/03/05 14:00:24;;;;;;;4.72;2.63;;;5.60;94.60;;;;;;5056124;28;20243;-84
2023/03/05 14:02:51;;;;;;;4.05;3.33;;;5.50;94.80;;;;;;5056742;28;20197;-84
2023/03/05 14:05:18;;;;;;;8.38;3.70;;;5.40;94.70;;;;;;5057816;28;20189;-84
2023/03/05 14:07:50;;;;;;;4.75;3.30;;;5.30;94.80;;;;;;5057563;28;20232;-84
2023/03/05 14:10:37;;;;;;;3.78;3.38;;;5.30;95.10;;;;;;5058020;28;20607;-84
2023/03/05 14:13:12;;;;;;;7.03;3.60;;;5.30;95.20;;;;;;5057417;28;20167;-84
2023/03/05 14:16:01;;;;;;;4.73;3.60;;;5.20;95.00;;;;;;5060519;28;20197;-85
2023/03/05 14:18:29;;;;;;;5.67;3.83;;;5.20;95.30;;;;;;5058460;28;20257;-85
2023/03/05 14:21:04;;;;;;;5.40;3.90;;;5.10;95.10;;;;;;5058216;28;20170;-85
2023/03/05 14:23:45;;;;;;;5.45;3.80;;;5.30;95.20;;;;;;5058684;28;20168;-85
2023/03/05 14:26:21;;;;;;;7.63;3.90;;;5.30;95.20;;;;;;5056839;28;20308;-85
2023/03/05 14:29:14;;;;;;;4.35;3.92;;;5.30;95.10;;;;;;5056953;28;20193;-85
2023/03/05 14:31:54;;;;;;;6.30;4.10;;;5.40;95.20;;;;;;5057484;28;20224;-85
2023/03/05 14:34:41;;;;;;;5.30;4.30;;;5.40;94.90;;;;;;5057316;28;20158;-85
2023/03/05 14:40:32;;;;;;;6.90;4.10;;;5.50;95.00;;;;;;5057938;28;20685;-84
2023/03/05 14:42:58;;;;;;;6.22;4.53;;;5.50;95.20;;;;;;5056443;28;20273;-85
2023/03/05 14:45:27;;;;;;;7.23;4.70;;;5.60;94.50;;;;;;5056781;28;20206;-85
2023/03/05 14:47:57;;;;;;;5.60;4.10;;;5.60;94.90;;;;;;5055926;28;20194;-84
2023/03/05 14:50:29;;;;;;;6.43;4.63;;;5.50;95.20;;;;;;5056517;28;20174;-84
2023/03/05 14:53:20;;;;;;;9.07;5.63;;;5.60;95.40;;;;;;5055329;28;20257;-84
2023/03/05 14:56:04;;;;;;;7.78;5.15;;;5.50;95.10;;;;;;5056243;28;20202;-84
2023/03/05 14:58:34;;;;;;;9.38;7.78;;;5.40;95.10;;;;;;5055703;28;20184;-84
2023/03/05 15:00:59;;;;;;;6.75;6.00;;;5.40;95.10;;;;;;5057508;28;20174;-84
2023/03/05 15:03:34;;;;;;;6.68;5.00;;;5.40;95.00;;;;;;5055624;28;20177;-84
2023/03/05 15:06:35;;;;;;;9.23;8.30;;;5.40;95.10;;;;;;5056027;28;20212;-84
2023/03/05 15:09:01;;;;;;;7.88;6.65;;;5.30;94.90;;;;;;5057276;28;20171;-84
2023/03/05 15:11:27;;;;;;;8.60;7.70;;;5.20;95.20;;;;;;5055808;28;20189;-84
2023/03/05 15:13:52;;;;;;;9.23;7.55;;;5.20;95.80;;;;;;5055990;28;20182;-84
2023/03/05 15:16:24;;;;;;;6.03;5.43;;;5.20;94.90;;;;;;5055338;28;20243;-84
2023/03/05 15:18:50;;;;;;;7.22;5.70;;;5.20;95.00;;;;;;5056424;28;20170;-84
2023/03/05 15:21:21;;;;;;;6.22;5.18;;;5.20;95.20;;;;;;5055627;28;20273;-84
2023/03/05 15:23:46;;;;;;;8.32;5.30;;;5.20;95.30;;;;;;5055119;28;20257;-84
2023/03/05 15:26:13;;;;;;;7.45;5.68;;;5.20;95.50;;;;;;5056082;28;20280;-84
2023/03/05 15:28:40;;;;;;;9.88;4.70;;;5.10;95.20;;;;;;5055504;28;20664;-84
2023/03/05 15:31:06;;;;;;;5.32;4.70;;;5.20;95.30;;;;;;5055551;28;20194;-84
2023/03/05 15:34:25;;;;;;;9.60;5.28;;;5.10;95.30;;;;;;5055204;28;20170;-84
2023/03/05 15:36:50;;;;;;;5.87;4.97;;;5.00;95.50;;;;;;5054577;28;20194;-84
2023/03/05 15:39:16;;;;;;;6.07;5.47;;;5.00;95.50;;;;;;5055029;28;20186;-84
2023/03/05 15:45:04;;;;;;;6.57;5.67;;;4.80;96.00;;;;;;5056018;28;20715;-84
2023/03/05 15:47:34;;;;;;;6.27;4.83;;;4.90;96.10;;;;;;5054955;28;20204;-84
2023/03/05 15:50:00;;;;;;;7.07;5.50;;;4.80;95.90;;;;;;5055374;28;20304;-84
2023/03/05 15:52:28;;;;;;;6.27;5.60;;;4.80;96.30;;;;;;5054507;28;20232;-84
2023/03/05 15:54:54;;;;;;;6.53;5.00;;;4.80;95.80;;;;;;5055492;28;20171;-84
2023/03/05 15:57:23;;;;;;;9.67;4.87;;;4.80;95.80;;;;;;5054512;28;20690;-84
2023/03/05 15:59:49;;;;;;;14.90;4.93;;;4.80;96.40;;;;;;5054649;28;20548;-84
2023/03/05 16:02:14;;;;;;;6.53;4.53;;;4.70;96.10;;;;;;5054666;28;20174;-84
2023/03/05 16:04:40;;;;;;;7.30;4.47;;;4.70;96.20;;;;;;5053981;28;20209;-84
2023/03/05 16:07:07;;;;;;;8.07;4.50;;;4.70;96.30;;;;;;5053950;28;20535;-84
2023/03/05 16:09:42;;;;;;;9.03;4.53;;;4.60;96.70;;;;;;5053974;28;20178;-84
2023/03/05 16:12:14;;;;;;;9.40;4.50;;;4.70;96.90;;;;;;5054529;28;20162;-84
2023/03/05 16:14:41;;;;;;;6.00;4.50;;;4.70;97.10;;;;;;5053057;28;20166;-84
2023/03/05 16:17:07;;;;;;;5.23;4.03;;;4.70;96.70;;;;;;5054305;28;20202;-84
2023/03/05 16:19:41;;;;;;;4.85;4.05;;;4.70;96.40;;;;;;5054612;28;20264;-84
2023/03/05 16:22:10;;;;;;;7.00;4.30;;;4.70;96.80;;;;;;5054219;28;20200;-84
2023/03/05 16:24:45;;;;;;;5.13;4.40;;;4.60;97.20;;;;;;5054221;28;20213;-84
2023/03/05 16:27:11;;;;;;;4.63;4.13;;;4.70;97.10;;;;;;5053853;28;20197;-84
2023/03/05 16:29:37;;;;;;;7.73;4.37;;;4.60;97.10;;;;;;5053887;28;20162;-84
2023/03/05 16:32:03;;;;;;;7.33;4.57;;;4.60;97.10;;;;;;5053787;28;20209;-84
2023/03/05 16:34:30;;;;;;;4.90;4.17;;;4.60;97.30;;;;;;5054074;28;20174;-84
2023/03/05 16:36:57;;;;;;;5.90;4.20;;;4.50;97.20;;;;;;5053897;28;20205;-82
2023/03/05 16:39:23;;;;;;;7.37;4.23;;;4.40;97.00;;;;;;5053835;28;20200;-82
2023/03/05 16:41:49;;;;;;;7.13;3.83;;;4.40;97.30;;;;;;5054916;28;20171;-82
2023/03/05 16:44:15;;;;;;;7.03;3.77;;;4.40;97.50;;;;;;5053473;28;20236;-81
2023/03/05 16:46:42;;;;;;;5.93;4.40;;;4.40;97.50;;;;;;5053711;28;20206;-82
2023/03/05 16:49:08;;;;;;;5.57;3.83;;;4.50;97.80;;;;;;5053706;28;20174;-82
2023/03/05 16:51:34;;;;;;;4.97;4.00;;;4.30;97.70;;;;;;5054232;28;20236;-82
2023/03/05 16:54:35;;;;;;;5.00;4.00;;;4.30;98.00;;;;;;5053469;28;20182;-82
2023/03/05 16:57:27;;;;;;;7.03;4.13;;;4.30;98.10;;;;;;5052875;28;20200;-82
2023/03/05 17:00:12;;;;;;;7.50;3.70;;;4.30;97.80;;;;;;5053964;28;20255;-82
2023/03/05 17:03:31;;;;;;;5.47;4.33;;;4.20;98.10;;;;;;5054046;28;20198;-82
2023/03/05 17:06:02;;;;;;;8.13;4.83;;;4.10;98.30;;;;;;5055754;28;20213;-82
2023/03/05 17:08:42;;;;;;;5.33;4.20;;;4.00;98.40;;;;;;5054616;28;20216;-83
2023/03/05 17:11:11;;;;;;;8.47;4.17;;;4.10;98.60;;;;;;5053981;28;20166;-82
2023/03/05 17:13:37;;;;;;;9.10;6.67;;;4.00;98.80;;;;;;5054079;28;20186;-83
2023/03/05 17:16:05;;;;;;;8.67;7.60;;;4.00;98.80;;;;;;5054271;28;20206;-83
2023/03/05 17:18:30;;;;;;;10.23;8.67;;;4.00;98.80;;;;;;5056298;28;20222;-83
2023/03/05 17:20:56;;;;;;;13.97;6.00;;;4.00;98.90;;;;;;5054595;28;20182;-83
2023/03/05 17:23:23;;;;;;;13.17;8.27;;;4.00;99.20;;;;;;5054537;28;20174;-83
2023/03/05 17:25:49;;;;;;;5.87;4.70;;;4.00;99.10;;;;;;5053293;28;20220;-83
2023/03/05 17:28:18;;;;;;;9.30;5.97;;;3.90;99.00;;;;;;5054219;28;20186;-83
2023/03/05 17:31:03;;;;;;;8.90;6.63;;;3.90;99.20;;;;;;5054983;28;20163;-82
2023/03/05 17:33:33;;;;;;;10.60;7.03;;;4.00;99.00;;;;;;5054391;28;20220;-82
2023/03/05 17:36:04;;;;;;;15.63;13.73;;;4.00;99.10;;;;;;5054164;28;20236;-83
2023/03/05 17:38:30;;;;;;;13.13;8.50;;;4.00;99.10;;;;;;5054961;28;20178;-83
2023/03/05 17:40:55;;;;;;;10.63;8.90;;;4.00;99.40;;;;;;5052887;28;20185;-83
2023/03/05 17:43:21;;;;;;;10.93;9.30;;;4.00;99.60;;;;;;5053758;28;20182;-83
2023/03/05 17:45:47;;;;;;;10.77;8.03;;;4.00;99.50;;;;;;5054474;28;20560;-83
2023/03/05 17:48:14;;;;;;;9.40;7.33;;;4.00;99.40;;;;;;5052957;28;20169;-83
2023/03/05 17:51:07;;;;;;;9.60;7.30;;;3.90;99.80;;;;;;5052469;28;20256;-83
2023/03/05 17:53:34;;;;;;;18.50;12.37;;;3.90;99.60;;;;;;5052613;28;20185;-82
2023/03/05 17:56:20;;;;;;;17.47;11.00;;;3.80;99.70;;;;;;5052676;28;20202;-82
2023/03/05 17:58:47;;;;;;;19.83;14.23;;;3.80;99.90;;;;;;5052469;28;20166;-82
2023/03/05 18:01:35;;;;;;;12.83;8.17;;;3.80;99.90;;;;;;5052414;28;20652;-82
2023/03/05 18:04:50;;;;;;;19.13;17.10;;;3.80;99.80;;;;;;5052467;28;20170;-84
2023/03/05 18:07:17;;;;;;;15.10;12.30;;;3.80;99.90;;;;;;5052477;28;20229;-83
2023/03/05 18:10:00;;;;;;;24.70;18.17;;;3.80;99.90;;;;;;5052584;28;20178;-83
2023/03/05 18:12:25;;;;;;;12.67;10.07;;;3.80;99.90;;;;;;5052226;28;20166;-83
2023/03/05 18:14:53;;;;;;;15.27;12.73;;;3.90;99.90;;;;;;5052177;28;20182;-83
2023/03/05 18:17:21;;;;;;;14.83;11.13;;;3.80;99.90;;;;;;5052292;28;20206;-82
2023/03/05 18:19:48;;;;;;;18.07;12.80;;;3.80;99.90;;;;;;5052067;28;20181;-83
2023/03/05 18:22:32;;;;;;;21.10;18.03;;;3.80;99.90;;;;;;5051865;28;20163;-83
2023/03/05 18:24:58;;;;;;;20.03;15.40;;;3.80;99.90;;;;;;5051572;28;20237;-83
2023/03/05 18:31:23;;;;;;;12.03;7.70;;;3.80;99.90;;;;;;5053186;28;20293;-83
2023/03/05 18:33:59;;;;;;;13.17;7.80;;;3.80;99.90;;;;;;5053027;28;20169;-82
2023/03/05 18:36:35;;;;;;;20.63;14.70;;;3.70;99.90;;;;;;5051720;28;20292;-82
2023/03/05 18:42:23;;;;;;;25.73;22.93;;;3.70;99.90;;;;;;5057014;28;20161;-83
2023/03/05 18:44:52;;;;;;;14.10;12.53;;;3.80;99.90;;;;;;5055889;28;20194;-83
2023/03/05 18:47:24;;;;;;;15.27;11.37;;;3.70;99.90;;;;;;5055119;28;20225;-83
2023/03/05 18:49:50;;;;;;;15.23;13.13;;;3.70;99.90;;;;;;5055203;28;20166;-83
2023/03/05 18:52:37;;;;;;;11.67;8.37;;;3.60;99.90;;;;;;5056371;28;20170;-83
2023/03/05 18:55:48;;;;;;;14.77;13.07;;;3.60;99.90;;;;;;5056231;28;20196;-83
2023/03/05 18:58:18;;;;;;;15.93;11.63;;;3.60;99.90;;;;;;5056761;28;20174;-83
2023/03/05 19:00:47;;;;;;;13.70;8.87;;;3.60;99.90;;;;;;5055256;28;20201;-83
2023/03/05 19:03:38;;;;;;;16.70;11.13;;;3.60;99.90;;;;;;5055584;28;20181;-83
2023/03/05 19:06:24;;;;;;;12.43;9.23;;;3.60;99.90;;;;;;5055499;28;20210;-83
2023/03/05 19:09:37;;;;;;;;;;;;;;;;;;;;;
2023/03/05 19:12:06;;;;;;;10.80;8.40;;;3.60;99.90;;;;;;5056184;28;20185;-83
2023/03/05 19:15:01;;;;;;;8.87;6.83;;;3.50;99.90;;;;;;5055815;28;20195;-83
2023/03/05 19:17:38;;;;;;;11.03;8.10;;;3.40;99.90;;;;;;5055495;28;20212;-83
2023/03/05 19:20:28;;;;;;;12.73;8.33;;;3.50;99.90;;;;;;5055520;28;20216;-83
2023/03/05 19:23:42;;;;;;;15.77;9.87;;;3.50;99.90;;;;;;5056717;28;20174;-84
2023/03/05 19:26:13;;;;;;;13.27;8.00;;;3.40;99.90;;;;;;5055442;28;20590;-83
2023/03/05 19:28:44;;;;;;;26.77;21.60;;;3.50;99.90;;;;;;5056077;28;20171;-83
2023/03/05 19:31:15;;;;;;;23.07;19.67;;;3.50;99.90;;;;;;5055697;28;20229;-83
2023/03/05 19:33:45;;;;;;;30.57;25.50;;;3.50;99.90;;;;;;5056114;28;20257;-83
2023/03/05 19:36:12;;;;;;;22.23;18.10;;;3.50;99.90;;;;;;5054740;28;20251;-83
2023/03/05 19:38:55;;;;;;;21.23;18.10;;;3.40;99.90;;;;;;5055944;28;20197;-83
2023/03/05 19:41:20;;;;;;;16.73;13.20;;;3.40;99.90;;;;;;5054657;28;20181;-83
2023/03/05 19:44:09;;;;;;;12.73;8.57;;;3.30;99.90;;;;;;5055803;28;20182;-82
2023/03/05 19:46:53;;;;;;;16.53;10.13;;;3.30;99.90;;;;;;5055247;28;20252;-83
2023/03/05 19:49:25;;;;;;;11.13;8.00;;;3.30;99.90;;;;;;5054524;28;20170;-84
2023/03/05 19:51:58;;;;;;;10.13;9.03;;;3.20;99.90;;;;;;5055109;28;20178;-84
2023/03/05 19:54:34;;;;;;;17.43;12.83;;;3.30;99.90;;;;;;5054784;28;20217;-83
2023/03/05 19:57:11;;;;;;;12.53;9.10;;;3.30;99.90;;;;;;5054179;28;20216;-83
2023/03/05 19:59:49;;;;;;;13.60;7.67;;;3.20;99.90;;;;;;5054827;28;20171;-83
2023/03/05 20:02:17;;;;;;;11.37;8.40;;;3.20;99.90;;;;;;5054095;28;20261;-83
2023/03/05 20:04:48;;;;;;;14.47;8.10;;;3.20;99.90;;;;;;5054383;28;20198;-84
2023/03/05 20:07:21;;;;;;;9.57;7.87;;;3.20;99.90;;;;;;5057420;28;20194;-83
2023/03/05 20:10:00;;;;;;;10.67;8.00;;;3.20;99.90;;;;;;5055122;28;20216;-83
2023/03/05 20:12:38;;;;;;;14.30;9.50;;;3.20;99.90;;;;;;5054979;28;20652;-83
2023/03/05 20:18:36;;;;;;;11.13;7.40;;;3.20;99.90;;;;;;5056440;28;20164;-83
2023/03/05 20:21:02;;;;;;;12.63;7.10;;;3.20;99.90;;;;;;5054281;28;20173;-83
2023/03/05 20:24:08;;;;;;;11.97;8.10;;;3.20;99.90;;;;;;5054781;28;20649;-86
2023/03/05 20:30:04;;;;;;;8.40;6.60;;;3.30;99.90;;;;;;5056210;28;20217;-84
2023/03/05 20:32:29;;;;;;;11.17;6.83;;;3.20;99.90;;;;;;5055462;28;20270;-82
2023/03/05 20:34:55;;;;;;;11.10;7.77;;;3.20;99.90;;;;;;5056505;28;20202;-83
2023/03/05 20:38:19;;;;;;;12.57;7.30;;;3.20;99.90;;;;;;5054156;28;20205;-83
2023/03/05 20:40:50;;;;;;;9.40;7.03;;;3.20;99.90;;;;;;5054435;28;20178;-83
2023/03/05 20:43:16;;;;;;;9.10;7.27;;;3.30;99.90;;;;;;5054115;28;20232;-84
2023/03/05 20:45:41;;;;;;;10.10;6.80;;;3.40;99.90;;;;;;5054544;28;20213;-84
2023/03/05 20:48:07;;;;;;;12.47;7.40;;;3.30;99.90;;;;;;5054138;28;20177;-83
2023/03/05 20:50:33;;;;;;;8.90;6.87;;;3.20;99.90;;;;;;5052971;28;20194;-83
2023/03/05 20:53:02;;;;;;;13.40;7.77;;;3.10;99.90;;;;;;5052900;28;20265;-83
2023/03/05 20:55:30;;;;;;;10.00;6.90;;;3.10;99.90;;;;;;5052310;28;20206;-83
2023/03/05 20:58:22;;;;;;;9.40;7.03;;;3.20;99.90;;;;;;5053863;28;20224;-83
2023/03/05 21:00:49;;;;;;;9.60;7.13;;;3.20;99.90;;;;;;5053613;28;20182;-83
2023/03/05 21:03:14;;;;;;;10.37;7.17;;;3.10;99.90;;;;;;5053675;28;20188;-83
2023/03/05 21:05:40;;;;;;;12.07;7.73;;;3.10;99.90;;;;;;5053869;28;20214;-84
2023/03/05 21:08:10;;;;;;;10.93;7.23;;;3.10;99.90;;;;;;5052288;28;20174;-84
2023/03/05 21:10:44;;;;;;;10.10;7.17;;;3.20;99.90;;;;;;5053381;28;20228;-84
2023/03/05 21:13:37;;;;;;;8.90;7.67;;;3.10;99.90;;;;;;5052888;28;20224;-83
2023/03/05 21:16:18;;;;;;;10.60;7.00;;;3.10;99.90;;;;;;5052759;28;20206;-83
2023/03/05 21:22:01;;;;;;;9.20;7.60;;;3.10;99.90;;;;;;5053880;28;20193;-83
2023/03/05 21:25:15;;;;;;;8.87;7.43;;;3.10;99.90;;;;;;5055253;28;20197;-83
2023/03/05 21:27:41;;;;;;;10.63;7.50;;;3.10;99.90;;;;;;5038391;28;20206;-83
2023/03/05 21:30:10;;;;;;;8.73;7.70;;;3.10;99.90;;;;;;5054262;28;20276;-83
2023/03/05 21:32:41;;;;;;;8.17;7.33;;;3.10;99.90;;;;;;5061547;28;20180;-83
2023/03/05 21:35:11;;;;;;;10.13;7.70;;;3.10;99.90;;;;;;5054045;28;20257;-84
2023/03/05 21:37:41;;;;;;;11.97;7.80;;;3.00;99.90;;;;;;5052881;28;20218;-84
2023/03/05 21:40:59;;;;;;;8.50;7.60;;;3.00;99.90;;;;;;5052907;28;20170;-84
2023/03/05 21:44:21;;;;;;;12.13;8.00;;;3.00;99.90;;;;;;5053274;28;20175;-84
2023/03/05 21:46:47;;;;;;;10.13;7.80;;;2.90;99.90;;;;;;5053811;28;20263;-83
2023/03/05 21:49:49;;;;;;;9.43;8.03;;;3.00;99.90;;;;;;5052234;28;20257;-83
2023/03/05 21:52:15;;;;;;;12.10;7.90;;;3.10;99.90;;;;;;5041527;28;20181;-84
2023/03/05 21:54:41;;;;;;;9.37;7.60;;;3.10;99.90;;;;;;5052075;28;20235;-84
2023/03/05 21:57:09;;;;;;;11.40;7.77;;;3.10;99.90;;;;;;5053188;28;20198;-83
2023/03/05 21:59:39;;;;;;;8.70;7.80;;;3.00;99.90;;;;;;5052955;28;20166;-83
2023/03/05 22:02:05;;;;;;;10.57;8.03;;;3.00;99.90;;;;;;5052053;28;20171;-83
2023/03/05 22:04:30;;;;;;;11.47;9.43;;;3.00;99.90;;;;;;5051882;28;20184;-83
2023/03/05 22:06:58;;;;;;;13.70;9.07;;;3.00;99.90;;;;;;5052828;28;20304;-83
2023/03/05 22:09:56;;;;;;;12.03;8.90;;;3.00;99.90;;;;;;5051850;28;20231;-83
2023/03/05 22:16:28;;;;;;;11.70;8.30;;;2.80;99.90;;;;;;4976537;28;20168;-83
2023/03/05 22:18:56;;;;;;;9.33;7.93;;;2.70;99.90;;;;;;4960653;28;20652;-83
2023/03/05 22:21:27;;;;;;;12.33;8.80;;;2.90;99.90;;;;;;5046995;28;20223;-83
2023/03/05 22:23:57;;;;;;;11.07;8.17;;;2.90;99.90;;;;;;5056764;28;20578;-83
2023/03/05 22:26:24;;;;;;;12.77;8.03;;;2.90;99.90;;;;;;5055792;28;20684;-83